Time;durP1;ratioP1;P1;durP2;ratioP2;P2;SDS_P1;SDS_P2;PMS_P1;PMS_P2;Temp;Humidity;BMP_temperature;BMP_pressure;BME280_temperature;BME280_humidity;BME280_pressure;Samples;Min_cycle;Max_cycle;Signal;HPM_P1;HPM_P2
2022/08/12 00:44:19;;;;;;;6.07;3.50;;;19.40;42.00;;;;;;5052200;28;20415;-70
2022/08/12 00:47:06;;;;;;;8.63;2.80;;;19.30;40.50;;;;;;5054423;28;20489;-72
2022/08/12 00:49:51;;;;;;;5.57;3.30;;;19.40;40.30;;;;;;5047651;28;20828;-72
2022/08/12 00:52:38;;;;;;;9.27;3.03;;;19.40;40.50;;;;;;5059770;28;20467;-72
2022/08/12 00:55:23;;;;;;;4.90;2.83;;;19.40;40.00;;;;;;5055483;28;20630;-72
2022/08/12 00:58:09;;;;;;;8.13;2.93;;;19.50;41.60;;;;;;5053969;28;20451;-72
2022/08/12 01:01:00;;;;;;;5.33;2.77;;;19.40;40.60;;;;;;5051926;28;20419;-73
2022/08/12 01:13:06;;;;;;;4.50;2.70;;;19.40;40.60;;;;;;5049427;28;20423;-72
2022/08/12 01:15:56;;;;;;;3.53;2.97;;;19.40;40.30;;;;;;5045694;28;20525;-72
2022/08/12 01:18:43;;;;;;;10.83;3.20;;;19.30;38.80;;;;;;5048972;28;20495;-71
2022/08/12 01:21:59;;;;;;;5.50;2.63;;;19.10;40.50;;;;;;5055313;28;20427;-72
2022/08/12 01:24:56;;;;;;;4.57;2.90;;;19.20;40.90;;;;;;5056152;28;20485;-72
2022/08/12 01:27:43;;;;;;;4.20;3.30;;;19.30;40.80;;;;;;5052247;28;20455;-72
2022/08/12 01:30:32;;;;;;;7.90;2.70;;;19.20;40.40;;;;;;5049581;28;20832;-72
2022/08/12 01:33:21;;;;;;;3.67;2.60;;;19.20;41.00;;;;;;5050702;28;20431;-72
2022/08/12 01:36:10;;;;;;;4.47;2.93;;;19.20;40.50;;;;;;5051929;28;20475;-72
2022/08/12 01:38:59;;;;;;;4.10;3.03;;;19.20;39.60;;;;;;5045928;28;20948;-72
2022/08/12 01:41:54;;;;;;;7.33;3.30;;;19.30;39.60;;;;;;5056967;28;20570;-72
2022/08/12 01:44:40;;;;;;;4.10;2.57;;;19.40;40.70;;;;;;5053645;28;20419;-72
2022/08/12 01:47:38;;;;;;;3.10;2.43;;;19.30;40.50;;;;;;5058470;28;20438;-72
2022/08/12 01:50:38;;;;;;;2.93;2.37;;;19.40;41.00;;;;;;5051267;28;20948;-73
2022/08/12 01:53:26;;;;;;;4.20;2.83;;;19.30;40.30;;;;;;5063552;28;20555;-71
2022/08/12 01:56:13;;;;;;;5.13;2.70;;;19.40;40.20;;;;;;5052921;28;20470;-73
2022/08/12 02:02:10;;;;;;;3.30;2.77;;;19.30;40.50;;;;;;5054695;28;20555;-72
2022/08/12 02:11:28;;;;;;;6.43;3.17;;;19.30;38.80;;;;;;5052787;28;20462;-72
2022/08/12 02:14:50;;;;;;;6.10;2.80;;;19.40;38.90;;;;;;5050419;28;20427;-72
2022/08/12 02:17:53;;;;;;;3.50;2.50;;;19.20;38.70;;;;;;5050816;28;20553;-73
2022/08/12 02:20:46;;;;;;;4.53;3.10;;;19.20;38.80;;;;;;5055288;28;20441;-72
2022/08/12 02:23:35;;;;;;;2.80;2.40;;;19.40;40.20;;;;;;5053298;28;20431;-72
2022/08/12 02:26:25;;;;;;;3.93;2.43;;;19.20;39.10;;;;;;5053716;28;20447;-72
2022/08/12 02:29:12;;;;;;;4.13;2.23;;;19.30;40.00;;;;;;5049280;28;20559;-72
2022/08/12 02:31:59;;;;;;;4.13;2.80;;;19.30;40.20;;;;;;5058550;28;20423;-72
2022/08/12 02:34:45;;;;;;;3.93;3.00;;;19.40;40.40;;;;;;5059616;28;20439;-72
2022/08/12 02:37:34;;;;;;;4.40;2.53;;;19.30;40.50;;;;;;5054991;28;20610;-72
2022/08/12 02:40:21;;;;;;;5.00;2.90;;;19.10;40.30;;;;;;5060619;28;20479;-72
2022/08/12 02:43:17;;;;;;;5.80;2.70;;;19.20;40.60;;;;;;5055097;28;20428;-72
2022/08/12 02:46:06;;;;;;;7.30;3.20;;;19.10;40.00;;;;;;5058478;28;20433;-72
2022/08/12 02:48:57;;;;;;;7.40;3.70;;;19.10;40.10;;;;;;5047478;28;20479;-72
2022/08/12 02:51:44;;;;;;;3.93;3.10;;;19.10;41.20;;;;;;5058384;28;20499;-72
2022/08/12 02:54:29;;;;;;;4.20;3.00;;;19.10;42.20;;;;;;5056269;28;20576;-72
2022/08/12 02:57:18;;;;;;;4.20;2.63;;;19.10;41.60;;;;;;5053017;28;20471;-70
2022/08/12 03:00:06;;;;;;;3.00;2.40;;;19.10;41.60;;;;;;5055990;28;20438;-72
2022/08/12 03:02:52;;;;;;;4.20;2.80;;;19.00;41.20;;;;;;5054515;28;20506;-72
2022/08/12 03:05:48;;;;;;;4.23;2.90;;;18.90;41.20;;;;;;5053470;28;20782;-72
2022/08/12 03:08:42;;;;;;;3.53;2.40;;;18.90;41.50;;;;;;5050551;28;20476;-72
2022/08/12 03:11:36;;;;;;;4.23;2.93;;;19.00;42.10;;;;;;5056462;28;20502;-72
2022/08/12 03:14:25;;;;;;;4.10;2.77;;;19.00;41.70;;;;;;5057119;28;20502;-72
2022/08/12 03:17:17;;;;;;;4.57;2.87;;;18.90;43.10;;;;;;5050524;28;20487;-72
2022/08/12 03:20:03;;;;;;;4.80;3.37;;;19.00;42.40;;;;;;5054542;28;20808;-72
2022/08/12 03:22:51;;;;;;;5.20;2.83;;;18.90;42.30;;;;;;5057400;28;20427;-72
2022/08/12 03:25:39;;;;;;;5.53;2.57;;;18.90;42.80;;;;;;5054528;28;20514;-72
2022/08/12 03:31:32;;;;;;;2.83;2.27;;;18.80;43.30;;;;;;5055504;28;20450;-72
2022/08/12 03:34:22;;;;;;;5.80;3.53;;;18.80;45.30;;;;;;5054153;28;20969;-71
2022/08/12 03:37:09;;;;;;;3.83;2.87;;;18.80;46.60;;;;;;5043927;28;20499;-71
2022/08/12 03:39:57;;;;;;;2.90;2.33;;;18.70;46.10;;;;;;5054639;28;20486;-72
2022/08/12 04:01:17;;;;;;;4.43;3.40;;;18.50;47.80;;;;;;5051851;28;20419;-71
2022/08/12 04:04:03;;;;;;;5.37;3.27;;;18.50;47.80;;;;;;5055307;28;20435;-72
2022/08/12 04:06:50;;;;;;;4.07;2.80;;;18.30;48.80;;;;;;5050980;28;20459;-72
2022/08/12 04:09:39;;;;;;;4.47;3.00;;;18.30;47.30;;;;;;5058395;28;20444;-72
2022/08/12 04:15:32;;;;;;;7.90;3.10;;;18.50;47.20;;;;;;5047568;28;20463;-71
2022/08/12 04:18:18;;;;;;;4.50;2.70;;;18.50;46.80;;;;;;5055565;28;20472;-72
2022/08/12 04:21:09;;;;;;;4.60;3.10;;;18.50;47.30;;;;;;5054217;28;20418;-72
2022/08/12 04:23:57;;;;;;;5.77;2.80;;;18.40;47.30;;;;;;5048363;28;20428;-72
2022/08/12 04:26:42;;;;;;;4.33;2.70;;;18.50;47.40;;;;;;5048622;28;20467;-72
2022/08/12 04:29:29;;;;;;;6.43;3.20;;;18.50;48.30;;;;;;5051988;28;20428;-72
2022/08/12 04:32:15;;;;;;;3.93;2.90;;;18.40;48.60;;;;;;5047535;28;20423;-72
2022/08/12 04:35:02;;;;;;;11.70;3.47;;;18.50;50.20;;;;;;5051712;28;20427;-72
2022/08/12 04:37:53;;;;;;;5.50;3.07;;;18.40;49.60;;;;;;5053141;28;20437;-71
2022/08/12 04:40:39;;;;;;;13.73;3.70;;;18.50;50.60;;;;;;5051871;28;20444;-72
2022/08/12 04:43:25;;;;;;;7.67;3.50;;;18.30;50.70;;;;;;5052802;28;20894;-72
2022/08/12 04:46:12;;;;;;;6.63;3.50;;;18.40;51.30;;;;;;5047792;28;20444;-72
2022/08/12 04:48:59;;;;;;;8.07;3.47;;;18.30;51.50;;;;;;5051181;28;20428;-71
2022/08/12 04:51:45;;;;;;;4.50;2.63;;;18.30;51.50;;;;;;5053765;28;20937;-70
2022/08/12 04:54:32;;;;;;;3.57;2.70;;;18.40;51.60;;;;;;5056604;28;20428;-70
2022/08/12 04:57:18;;;;;;;3.77;3.17;;;18.50;51.70;;;;;;5044952;28;20836;-70
2022/08/12 05:00:08;;;;;;;5.10;2.73;;;18.50;53.10;;;;;;5056947;28;20427;-70
2022/08/12 05:02:55;;;;;;;4.03;2.50;;;18.60;53.60;;;;;;5051008;28;20410;-70
2022/08/12 05:05:44;;;;;;;3.23;2.93;;;18.60;52.90;;;;;;5046503;28;20504;-71
2022/08/12 05:08:30;;;;;;;8.93;3.60;;;18.50;53.00;;;;;;5053456;28;20452;-70
2022/08/12 05:11:16;;;;;;;18.13;3.23;;;18.60;52.90;;;;;;5053559;28;20446;-70
2022/08/12 05:14:01;;;;;;;6.17;2.53;;;18.70;53.50;;;;;;5053802;28;20596;-70
2022/08/12 05:16:47;;;;;;;4.20;2.77;;;18.80;52.10;;;;;;5046958;28;20468;-70
2022/08/12 05:19:34;;;;;;;9.53;3.03;;;18.90;50.00;;;;;;5050465;28;20571;-71
2022/08/12 05:22:20;;;;;;;6.83;5.80;;;19.20;52.50;;;;;;5055461;28;20458;-71
2022/08/12 05:25:06;;;;;;;10.30;3.60;;;19.30;50.30;;;;;;5052314;28;20464;-71
2022/08/12 05:27:52;;;;;;;5.10;3.03;;;19.50;46.70;;;;;;5052195;28;20440;-71
2022/08/12 05:30:37;;;;;;;3.90;2.83;;;19.60;45.90;;;;;;5054511;28;20940;-71
2022/08/12 05:33:25;;;;;;;13.83;2.93;;;19.70;45.50;;;;;;5056017;28;20431;-71
2022/08/12 05:36:13;;;;;;;3.77;2.70;;;20.00;44.10;;;;;;5041737;28;20440;-71
2022/08/12 05:38:59;;;;;;;4.80;2.50;;;20.10;42.40;;;;;;5051780;28;20423;-71
2022/08/12 05:41:45;;;;;;;20.90;3.37;;;20.30;42.50;;;;;;5054246;28;20799;-71
2022/08/12 05:44:30;;;;;;;4.97;2.60;;;20.50;43.30;;;;;;5051754;28;20904;-71
2022/08/12 05:47:16;;;;;;;4.90;2.90;;;20.70;41.30;;;;;;5051886;28;20601;-71
2022/08/12 05:50:01;;;;;;;2.73;2.30;;;20.90;40.50;;;;;;5051724;28;20787;-70
2022/08/12 05:52:48;;;;;;;4.10;2.97;;;21.00;40.00;;;;;;5052057;28;20422;-71
2022/08/12 05:55:34;;;;;;;12.00;2.77;;;21.10;38.60;;;;;;5047247;28;20458;-70
2022/08/12 05:58:20;;;;;;;5.37;2.93;;;21.30;37.30;;;;;;5056505;28;20462;-71
2022/08/12 06:01:05;;;;;;;8.63;2.60;;;21.40;37.70;;;;;;5060381;28;20422;-71
2022/08/12 06:03:51;;;;;;;21.17;2.73;;;21.60;35.90;;;;;;5053547;28;20427;-71
2022/08/12 06:06:40;;;;;;;6.60;2.90;;;21.60;35.80;;;;;;5045149;28;20463;-71
2022/08/12 06:09:29;;;;;;;5.50;2.50;;;21.80;35.30;;;;;;5056511;28;20566;-71
2022/08/12 06:12:22;;;;;;;6.53;3.13;;;21.90;34.70;;;;;;5051117;28;20980;-71
2022/08/12 06:15:08;;;;;;;5.20;2.63;;;22.00;34.00;;;;;;5041539;28;20558;-71
2022/08/12 06:17:55;;;;;;;7.03;2.50;;;22.10;33.50;;;;;;5055526;28;20485;-71
2022/08/12 06:20:40;;;;;;;8.10;2.97;;;22.10;32.70;;;;;;5051385;28;20439;-71
2022/08/12 06:23:28;;;;;;;5.00;2.70;;;22.20;32.50;;;;;;5053395;28;20419;-71
2022/08/12 06:26:17;;;;;;;7.90;2.73;;;22.20;32.70;;;;;;5052319;28;20442;-71
2022/08/12 06:29:03;;;;;;;5.03;3.27;;;22.30;32.30;;;;;;5053320;28;20416;-71
2022/08/12 06:31:50;;;;;;;3.70;2.67;;;22.40;31.70;;;;;;5059420;28;20482;-70
2022/08/12 06:34:36;;;;;;;3.37;2.40;;;22.50;31.50;;;;;;5048977;28;20519;-72
2022/08/12 06:37:22;;;;;;;6.30;3.30;;;22.50;31.00;;;;;;5053383;28;20836;-70
2022/08/12 06:40:09;;;;;;;7.20;3.00;;;22.60;31.10;;;;;;5057742;28;20801;-70
2022/08/12 06:42:56;;;;;;;4.57;2.87;;;22.70;30.90;;;;;;5053081;28;20790;-70
2022/08/12 06:45:48;;;;;;;3.60;2.70;;;22.80;30.00;;;;;;5047611;28;20452;-71
2022/08/12 06:48:34;;;;;;;3.70;2.43;;;22.90;30.60;;;;;;5050916;28;20483;-71
2022/08/12 06:51:20;;;;;;;3.73;2.67;;;23.00;30.00;;;;;;5057842;28;20432;-70
2022/08/12 06:54:09;;;;;;;3.43;2.60;;;23.00;30.30;;;;;;5053518;28;21265;-71
2022/08/12 06:56:54;;;;;;;7.60;2.60;;;23.10;29.70;;;;;;5049531;28;20888;-71
2022/08/12 06:59:41;;;;;;;3.90;2.40;;;23.20;29.00;;;;;;5053263;28;20470;-70
2022/08/12 07:02:27;;;;;;;5.73;2.10;;;23.30;29.80;;;;;;5052188;28;20518;-71
2022/08/12 07:05:13;;;;;;;7.07;2.60;;;23.30;29.10;;;;;;5048718;28;20531;-70
2022/08/12 07:08:08;;;;;;;8.90;3.00;;;23.40;29.20;;;;;;5056710;28;20439;-70
2022/08/12 07:10:57;;;;;;;5.43;2.43;;;23.50;29.30;;;;;;5051081;28;20432;-70
2022/08/12 07:13:47;;;;;;;12.53;2.70;;;23.50;29.30;;;;;;5050064;28;20427;-71
2022/08/12 07:19:35;;;;;;;6.53;3.30;;;23.70;28.50;;;;;;5056191;28;20430;-71
2022/08/12 07:22:22;;;;;;;8.00;2.90;;;23.80;29.40;;;;;;5052913;28;20431;-71
2022/08/12 07:28:14;;;;;;;2.87;2.37;;;24.00;28.20;;;;;;5051392;28;20487;-71
2022/08/12 07:30:59;;;;;;;3.87;2.50;;;24.10;28.50;;;;;;5052730;28;20439;-70
2022/08/12 07:33:48;;;;;;;4.80;2.60;;;24.10;28.20;;;;;;5045961;28;20495;-71
2022/08/12 07:36:34;;;;;;;3.30;2.13;;;24.20;28.50;;;;;;5050325;28;20434;-71
2022/08/12 07:39:20;;;;;;;3.37;2.43;;;24.30;28.50;;;;;;5051468;28;20618;-71
2022/08/12 07:42:06;;;;;;;9.17;2.67;;;24.40;27.70;;;;;;5052642;28;20435;-71
2022/08/12 07:44:51;;;;;;;3.53;2.40;;;24.50;27.60;;;;;;5048804;28;20533;-71
2022/08/12 07:47:38;;;;;;;6.60;2.70;;;24.60;27.10;;;;;;5051999;28;20517;-71
2022/08/12 07:50:25;;;;;;;3.10;2.30;;;24.60;27.20;;;;;;5052346;28;20458;-71
2022/08/12 07:53:11;;;;;;;3.47;2.23;;;24.60;27.10;;;;;;5048449;28;20427;-72
2022/08/12 07:55:57;;;;;;;4.17;2.47;;;24.70;27.20;;;;;;5049957;28;20802;-71
2022/08/12 07:58:42;;;;;;;5.77;2.50;;;24.80;27.50;;;;;;5053233;28;20483;-71
2022/08/12 08:01:28;;;;;;;4.07;2.57;;;24.90;26.80;;;;;;5058088;28;20944;-71
2022/08/12 08:07:18;;;;;;;10.10;2.43;;;25.10;26.30;;;;;;5049561;28;20889;-71
2022/08/12 08:10:09;;;;;;;4.10;2.50;;;25.10;26.90;;;;;;5050365;28;20936;-71
2022/08/12 08:12:54;;;;;;;3.70;2.50;;;25.20;26.20;;;;;;5051972;28;20797;-70
2022/08/12 08:15:41;;;;;;;5.03;2.30;;;25.30;26.40;;;;;;5053866;28;20420;-71
2022/08/12 08:18:27;;;;;;;5.53;2.50;;;25.30;26.50;;;;;;5054614;28;20553;-71
2022/08/12 08:21:14;;;;;;;4.93;2.13;;;25.40;26.00;;;;;;5053862;28;20562;-71
2022/08/12 08:24:14;;;;;;;4.43;2.30;;;25.50;26.60;;;;;;5047017;28;20448;-70
2022/08/12 08:27:00;;;;;;;7.33;2.33;;;25.60;27.10;;;;;;5051974;28;20455;-71
2022/08/12 08:29:46;;;;;;;3.10;2.10;;;25.70;24.90;;;;;;5057205;28;20466;-71
2022/08/12 08:32:32;;;;;;;3.47;2.30;;;25.80;25.10;;;;;;5052123;28;20431;-71
2022/08/12 08:35:18;;;;;;;6.10;3.00;;;25.80;24.70;;;;;;5049460;28;20474;-71
2022/08/12 08:38:09;;;;;;;5.83;2.40;;;25.80;24.80;;;;;;5051384;28;20991;-71
2022/08/12 08:44:00;;;;;;;6.63;2.47;;;25.90;23.70;;;;;;5047307;28;20459;-71
2022/08/12 08:46:45;;;;;;;6.93;2.20;;;26.00;24.60;;;;;;5052812;28;20577;-71
2022/08/12 08:49:31;;;;;;;5.23;2.20;;;26.10;25.00;;;;;;5054446;28;20427;-71
2022/08/12 08:52:19;;;;;;;11.23;3.30;;;26.20;23.60;;;;;;5054063;28;20830;-72
2022/08/12 08:55:05;;;;;;;8.97;2.10;;;26.30;23.30;;;;;;5048419;28;20451;-71
2022/08/12 08:57:54;;;;;;;8.63;1.87;;;26.40;22.40;;;;;;5050117;28;20621;-72
2022/08/12 09:00:41;;;;;;;2.83;2.20;;;26.40;21.00;;;;;;5057266;28;20435;-70
2022/08/12 09:03:28;;;;;;;3.13;2.03;;;26.40;21.70;;;;;;5043922;28;20593;-70
2022/08/12 09:06:14;;;;;;;4.47;2.00;;;26.50;21.70;;;;;;5052707;28;20488;-71
2022/08/12 09:09:03;;;;;;;6.40;2.67;;;26.50;22.60;;;;;;5052823;28;20466;-71
2022/08/12 09:14:53;;;;;;;7.83;2.40;;;26.70;21.60;;;;;;5049303;28;20565;-71
2022/08/12 09:17:39;;;;;;;5.40;2.10;;;26.80;20.50;;;;;;5050994;28;20495;-71
2022/08/12 09:20:25;;;;;;;3.00;1.90;;;26.90;20.30;;;;;;5048970;28;20426;-71
2022/08/12 09:23:12;;;;;;;5.70;2.17;;;26.90;20.60;;;;;;5051103;28;20448;-71
2022/08/12 09:26:01;;;;;;;3.53;2.30;;;27.00;20.30;;;;;;5056998;28;20492;-71
2022/08/12 09:28:49;;;;;;;5.27;2.30;;;27.00;20.30;;;;;;5049166;28;20411;-71
2022/08/12 09:31:36;;;;;;;5.80;2.00;;;27.00;20.30;;;;;;5053382;28;20436;-71
2022/08/12 09:34:22;;;;;;;3.50;2.10;;;27.00;20.80;;;;;;5043930;28;20586;-71
2022/08/12 09:37:07;;;;;;;3.70;2.43;;;27.10;20.40;;;;;;5057086;28;20968;-71
2022/08/12 09:39:53;;;;;;;4.00;2.03;;;27.10;19.80;;;;;;5051318;28;20419;-71
2022/08/12 09:45:45;;;;;;;3.20;2.00;;;27.20;18.90;;;;;;5050206;28;20455;-71
2022/08/12 09:48:32;;;;;;;5.20;2.23;;;27.30;19.90;;;;;;5049033;28;20463;-71
2022/08/12 09:51:18;;;;;;;6.40;2.80;;;27.40;19.20;;;;;;5050454;28;20518;-71
2022/08/12 09:54:04;;;;;;;4.67;2.03;;;27.50;19.00;;;;;;5042913;28;20435;-70
2022/08/12 09:56:52;;;;;;;5.53;2.37;;;27.60;18.80;;;;;;5051450;28;20442;-71
2022/08/12 09:59:38;;;;;;;5.90;2.20;;;27.70;19.20;;;;;;5057728;28;20470;-71
2022/08/12 10:02:25;;;;;;;3.83;2.17;;;27.70;18.80;;;;;;5048717;28;20555;-71
2022/08/12 10:05:12;;;;;;;2.90;1.90;;;27.80;18.40;;;;;;5058630;28;20526;-71
2022/08/12 10:07:57;;;;;;;5.00;2.20;;;27.80;18.50;;;;;;5052924;28;20447;-71
2022/08/12 10:13:49;;;;;;;6.87;1.77;;;27.90;17.40;;;;;;5046273;28;20434;-71
2022/08/12 10:16:42;;;;;;;2.50;1.57;;;28.00;18.40;;;;;;5054912;28;20475;-71
2022/08/12 10:19:28;;;;;;;4.40;1.93;;;28.10;18.50;;;;;;5053455;28;20478;-71
2022/08/12 10:22:15;;;;;;;3.40;1.93;;;28.10;18.70;;;;;;5052137;28;20436;-71
2022/08/12 10:31:07;;;;;;;3.70;2.13;;;28.40;17.80;;;;;;5049723;28;20500;-71
2022/08/12 10:33:53;;;;;;;3.90;2.20;;;28.40;18.40;;;;;;5051907;28;20446;-71
2022/08/12 10:36:40;;;;;;;4.33;1.80;;;28.50;17.00;;;;;;5054953;28;20447;-70
2022/08/12 10:39:32;;;;;;;7.60;2.00;;;28.50;19.50;;;;;;5052271;28;20479;-71
2022/08/12 10:45:21;;;;;;;3.00;2.07;;;28.70;17.30;;;;;;5053774;28;20478;-71
2022/08/12 10:48:06;;;;;;;4.67;2.53;;;28.80;17.60;;;;;;5053585;22;20643;-72
2022/08/12 10:50:52;;;;;;;9.93;2.80;;;28.90;18.30;;;;;;5028962;28;20424;-72
2022/08/12 10:53:38;;;;;;;4.80;2.30;;;29.00;16.60;;;;;;5027446;28;20539;-73
2022/08/12 10:56:25;;;;;;;2.80;1.77;;;29.00;17.40;;;;;;5028223;28;20479;-72
2022/08/12 10:59:12;;;;;;;4.47;2.00;;;29.10;16.30;;;;;;5011742;28;20489;-72
2022/08/12 11:01:59;;;;;;;3.60;2.17;;;29.10;16.40;;;;;;5009327;28;20448;-72
2022/08/12 11:04:44;;;;;;;8.60;2.13;;;29.10;15.90;;;;;;5013870;28;20520;-73
2022/08/12 11:07:34;;;;;;;3.43;2.13;;;29.20;17.20;;;;;;5012966;28;20450;-73
2022/08/12 11:10:20;;;;;;;3.77;2.20;;;29.30;16.40;;;;;;5012192;28;20425;-72
2022/08/12 11:13:07;;;;;;;4.60;2.40;;;29.40;16.70;;;;;;5007727;28;20469;-72
2022/08/12 11:15:54;;;;;;;7.93;2.13;;;29.50;15.80;;;;;;5011993;28;20801;-73
2022/08/12 11:18:39;;;;;;;5.27;2.33;;;29.50;16.20;;;;;;5005872;28;20473;-73
2022/08/12 11:21:25;;;;;;;3.77;2.10;;;29.50;15.20;;;;;;5004275;28;20476;-72
2022/08/12 11:24:10;;;;;;;4.07;2.50;;;29.60;15.70;;;;;;5012067;28;21066;-73
2022/08/12 11:26:56;;;;;;;4.40;2.20;;;29.60;16.60;;;;;;5011366;28;20516;-73
2022/08/12 11:29:43;;;;;;;4.90;2.00;;;29.60;16.10;;;;;;5011799;28;20786;-73
2022/08/12 11:32:29;;;;;;;5.20;2.03;;;29.70;15.20;;;;;;5006304;28;20524;-73
2022/08/12 11:35:15;;;;;;;3.40;2.20;;;29.80;15.30;;;;;;5009643;28;20564;-73
2022/08/12 11:38:01;;;;;;;5.07;2.30;;;29.80;16.40;;;;;;5011342;28;20464;-73
2022/08/12 11:40:47;;;;;;;5.27;1.87;;;29.80;14.90;;;;;;5006036;28;20429;-73
2022/08/12 11:43:32;;;;;;;3.43;1.87;;;29.80;15.00;;;;;;5011577;28;20570;-73
2022/08/12 11:46:20;;;;;;;74.53;10.03;;;29.90;14.40;;;;;;5010976;28;20425;-73
2022/08/12 11:49:06;;;;;;;25.80;4.13;;;29.90;15.50;;;;;;5011109;28;20453;-73
2022/08/12 11:51:52;;;;;;;3.87;2.47;;;29.90;14.80;;;;;;5011973;28;20454;-73
2022/08/12 11:54:38;;;;;;;5.73;2.40;;;29.90;15.40;;;;;;5008134;28;20429;-73
2022/08/12 11:57:23;;;;;;;9.93;3.00;;;30.00;14.70;;;;;;5009307;28;20536;-73
2022/08/12 12:00:10;;;;;;;8.80;2.77;;;29.90;15.40;;;;;;5011824;28;20515;-73
2022/08/12 12:02:58;;;;;;;5.50;2.00;;;29.90;14.80;;;;;;5005900;28;20949;-73
2022/08/12 12:05:43;;;;;;;10.60;1.90;;;29.90;15.40;;;;;;5002309;28;20450;-73
2022/08/12 12:08:30;;;;;;;8.23;1.93;;;29.90;14.40;;;;;;5009403;28;20445;-73
2022/08/12 12:11:16;;;;;;;38.20;4.90;;;29.90;13.80;;;;;;5008379;28;20513;-73
2022/08/12 12:14:01;;;;;;;6.80;2.57;;;29.90;14.50;;;;;;5011365;28;20514;-73
2022/08/12 12:16:47;;;;;;;6.60;1.87;;;29.90;15.30;;;;;;5015799;28;20480;-73
2022/08/12 12:19:34;;;;;;;39.07;4.37;;;30.10;13.70;;;;;;5012510;28;20485;-73
2022/08/12 12:22:20;;;;;;;22.43;4.83;;;30.10;13.70;;;;;;5009403;28;20501;-72
2022/08/12 12:25:07;;;;;;;4.63;1.67;;;30.10;14.00;;;;;;5006341;28;20425;-73
2022/08/12 12:27:55;;;;;;;6.27;1.97;;;30.20;14.10;;;;;;5011709;28;20447;-73
2022/08/12 12:30:41;;;;;;;3.00;2.03;;;30.40;14.30;;;;;;5002030;28;20446;-73
2022/08/12 12:33:27;;;;;;;2.97;1.70;;;30.60;13.00;;;;;;5009793;28;20554;-73
2022/08/12 12:36:14;;;;;;;5.10;2.30;;;30.70;13.00;;;;;;5010248;28;20429;-73
2022/08/12 12:39:00;;;;;;;3.47;1.60;;;30.80;12.70;;;;;;5015665;28;20464;-73
2022/08/12 12:41:45;;;;;;;8.97;1.97;;;30.80;12.50;;;;;;5006128;28;20449;-73
2022/08/12 12:44:31;;;;;;;6.47;2.00;;;30.80;12.20;;;;;;5010108;28;20453;-73
2022/08/12 12:47:17;;;;;;;5.20;2.00;;;30.80;11.90;;;;;;5009072;28;21029;-73
2022/08/12 12:50:03;;;;;;;3.07;1.67;;;30.70;12.20;;;;;;5008738;28;20545;-73
2022/08/12 12:52:50;;;;;;;3.07;1.80;;;30.70;12.70;;;;;;5009331;28;20453;-73
2022/08/12 12:55:37;;;;;;;4.30;2.07;;;30.70;13.80;;;;;;5006905;28;20429;-73
2022/08/12 12:58:22;;;;;;;3.50;2.10;;;30.80;13.80;;;;;;5002387;28;20445;-73
2022/08/12 13:01:08;;;;;;;4.53;2.13;;;30.90;13.50;;;;;;5006597;28;20445;-73
2022/08/12 13:03:55;;;;;;;6.07;1.83;;;31.20;12.90;;;;;;5012121;28;20511;-73
2022/08/12 13:06:41;;;;;;;3.50;2.10;;;31.30;13.10;;;;;;5014521;28;20806;-73
2022/08/12 13:09:29;;;;;;;3.67;1.60;;;31.20;12.40;;;;;;5013617;28;20421;-73
2022/08/12 13:12:15;;;;;;;7.27;1.87;;;31.00;12.50;;;;;;5013519;28;20444;-73
2022/08/12 13:15:02;;;;;;;3.40;1.77;;;31.10;12.70;;;;;;5013447;28;20505;-73
2022/08/12 13:17:49;;;;;;;9.23;2.10;;;31.30;12.60;;;;;;5026031;28;20441;-72
2022/08/12 13:20:35;;;;;;;3.00;1.70;;;31.40;12.20;;;;;;5016826;28;20559;-73
2022/08/12 13:23:21;;;;;;;5.37;2.00;;;31.40;12.00;;;;;;5018879;28;20580;-73
2022/08/12 13:26:08;;;;;;;2.83;1.60;;;31.20;13.00;;;;;;5014496;28;20847;-73
2022/08/12 13:28:55;;;;;;;2.77;1.60;;;31.20;12.40;;;;;;5015985;28;20452;-73
2022/08/12 13:31:41;;;;;;;5.03;1.83;;;31.00;12.10;;;;;;5011843;28;20510;-73
2022/08/12 13:34:27;;;;;;;2.63;1.50;;;31.00;11.90;;;;;;5018560;28;20437;-72
2022/08/12 13:37:14;;;;;;;4.40;1.67;;;31.30;11.80;;;;;;5014927;28;20441;-73
2022/08/12 13:39:59;;;;;;;3.20;1.40;;;31.70;12.20;;;;;;5008501;28;20473;-73
2022/08/12 13:42:47;;;;;;;3.97;1.73;;;32.10;11.40;;;;;;5012138;28;20425;-73
2022/08/12 13:45:34;;;;;;;4.43;1.80;;;32.40;11.60;;;;;;5006274;28;20418;-73
2022/08/12 13:48:20;;;;;;;5.73;1.90;;;32.60;11.80;;;;;;5017012;28;20484;-73
2022/08/12 13:51:05;;;;;;;4.13;1.73;;;32.40;11.00;;;;;;5012320;28;20458;-73
2022/08/12 13:53:51;;;;;;;3.37;1.97;;;32.20;11.50;;;;;;5022611;28;20425;-72
2022/08/12 13:56:37;;;;;;;4.10;1.87;;;32.10;11.20;;;;;;5017277;28;20430;-73
2022/08/12 13:59:25;;;;;;;3.47;1.50;;;32.00;11.40;;;;;;5025033;28;21507;-73
2022/08/12 14:02:12;;;;;;;5.93;1.63;;;31.80;10.30;;;;;;5019217;28;20420;-73
2022/08/12 14:04:57;;;;;;;7.90;1.60;;;31.80;11.30;;;;;;5008896;28;20452;-73
2022/08/12 14:07:57;;;;;;;4.60;1.40;;;32.00;10.60;;;;;;5012767;28;20460;-73
2022/08/12 14:10:45;;;;;;;2.57;1.60;;;32.20;10.20;;;;;;5008342;28;20441;-73
2022/08/12 14:13:36;;;;;;;3.57;1.60;;;32.20;10.90;;;;;;5014438;28;20433;-73
2022/08/12 14:16:23;;;;;;;4.57;1.80;;;32.10;12.10;;;;;;5004812;28;20955;-73
2022/08/12 14:19:08;;;;;;;3.90;1.67;;;31.80;10.90;;;;;;5006372;28;20476;-72
2022/08/12 14:21:55;;;;;;;8.13;1.90;;;31.40;11.00;;;;;;4999582;28;20513;-73
2022/08/12 14:24:41;;;;;;;2.90;1.20;;;31.00;11.10;;;;;;5025161;28;20421;-72
2022/08/12 14:27:27;;;;;;;6.37;1.60;;;30.90;11.40;;;;;;5021450;28;20529;-73
2022/08/12 14:30:12;;;;;;;4.43;1.40;;;31.10;11.60;;;;;;5015253;28;20573;-73
2022/08/12 14:33:02;;;;;;;9.70;1.70;;;31.20;11.40;;;;;;5017715;28;20499;-73
2022/08/12 14:35:48;;;;;;;3.20;1.33;;;31.40;11.40;;;;;;5015165;28;20424;-72
2022/08/12 14:38:36;;;;;;;7.40;1.63;;;31.30;10.20;;;;;;5012197;28;20998;-72
2022/08/12 14:41:24;;;;;;;3.30;1.70;;;31.20;10.90;;;;;;5012136;28;20994;-73
2022/08/12 14:44:10;;;;;;;11.43;1.87;;;30.80;11.50;;;;;;5011534;28;20433;-73
2022/08/12 14:46:56;;;;;;;5.70;1.63;;;30.80;11.10;;;;;;5010891;28;20569;-73
2022/08/12 14:49:44;;;;;;;3.43;1.70;;;30.90;11.70;;;;;;5008791;28;21102;-73
2022/08/12 14:52:30;;;;;;;5.63;1.57;;;31.20;10.90;;;;;;5012788;28;21017;-73
2022/08/12 14:55:15;;;;;;;4.50;1.70;;;31.30;11.00;;;;;;5022574;28;20731;-73
2022/08/12 14:58:01;;;;;;;5.10;2.80;;;31.40;11.00;;;;;;5013221;28;20452;-73
2022/08/12 15:03:50;;;;;;;9.50;3.20;;;31.00;10.80;;;;;;5018458;28;20824;-73
2022/08/12 15:06:38;;;;;;;5.23;1.67;;;31.10;11.40;;;;;;5015266;28;20859;-72
2022/08/12 15:09:24;;;;;;;7.10;1.57;;;31.30;11.00;;;;;;5012643;28;20547;-73
2022/08/12 15:12:12;;;;;;;4.83;1.53;;;31.40;11.10;;;;;;5013957;28;20454;-73
2022/08/12 15:14:58;;;;;;;6.30;1.50;;;31.60;9.80;;;;;;5011471;28;20473;-73
2022/08/12 15:17:44;;;;;;;4.33;1.53;;;31.50;11.10;;;;;;5004679;28;20441;-73
2022/08/12 15:20:29;;;;;;;2.73;1.60;;;31.30;10.90;;;;;;5004505;28;20615;-73
2022/08/12 15:23:17;;;;;;;4.70;1.43;;;31.20;11.00;;;;;;5011487;28;20994;-73
2022/08/12 15:26:10;;;;;;;4.47;2.70;;;30.90;11.40;;;;;;5007535;28;20425;-73
2022/08/12 15:28:56;;;;;;;4.23;1.60;;;30.70;11.50;;;;;;5009653;28;20469;-73
2022/08/12 15:31:42;;;;;;;4.70;1.77;;;30.50;11.70;;;;;;5017345;28;20425;-73
2022/08/12 15:34:27;;;;;;;3.53;2.03;;;30.30;11.50;;;;;;5018521;28;20541;-73
2022/08/12 15:37:13;;;;;;;8.80;7.90;;;30.20;12.50;;;;;;5021429;28;20515;-73
2022/08/12 15:40:00;;;;;;;5.17;2.30;;;30.20;12.50;;;;;;5006778;28;20488;-73
2022/08/12 15:42:48;;;;;;;4.23;1.37;;;30.10;12.80;;;;;;5018648;28;20425;-72
2022/08/12 15:45:36;;;;;;;7.23;2.20;;;29.90;12.70;;;;;;5013638;28;20430;-73
2022/08/12 15:48:21;;;;;;;4.50;2.23;;;29.80;12.50;;;;;;5006060;28;20492;-73
2022/08/12 15:51:07;;;;;;;9.40;6.83;;;29.70;12.80;;;;;;5009737;28;20434;-73
2022/08/12 15:54:07;;;;;;;5.07;1.90;;;29.70;13.40;;;;;;5012151;28;21067;-73
2022/08/12 15:56:54;;;;;;;10.10;7.30;;;29.90;12.60;;;;;;5004901;28;20840;-72
2022/08/12 15:59:42;;;;;;;6.67;3.00;;;30.20;13.00;;;;;;5005542;28;20588;-73
2022/08/12 16:02:27;;;;;;;5.97;5.10;;;30.30;12.60;;;;;;5012934;28;20784;-73
2022/08/12 16:05:17;;;;;;;11.23;10.20;;;30.30;13.00;;;;;;5021075;28;20428;-72
2022/08/12 16:08:04;;;;;;;4.73;2.50;;;30.10;12.90;;;;;;5005203;28;20998;-72
2022/08/12 16:10:51;;;;;;;6.33;2.17;;;30.00;12.80;;;;;;5013268;28;20482;-73
2022/08/12 16:13:38;;;;;;;7.50;3.57;;;29.90;12.20;;;;;;5016421;28;20908;-73
2022/08/12 16:16:26;;;;;;;5.33;1.60;;;29.70;13.10;;;;;;5019284;28;20521;-73
2022/08/12 16:19:12;;;;;;;3.83;1.60;;;29.60;13.30;;;;;;5005404;28;20541;-73
2022/08/12 16:21:58;;;;;;;4.70;1.70;;;29.50;13.00;;;;;;5018610;28;20425;-73
2022/08/12 16:24:45;;;;;;;3.17;2.10;;;29.50;13.20;;;;;;5017770;28;20531;-73
2022/08/12 16:27:32;;;;;;;7.07;1.93;;;29.60;13.40;;;;;;5016826;28;20465;-73
2022/08/12 16:30:19;;;;;;;7.00;3.47;;;29.80;13.30;;;;;;5005471;28;20453;-73